sensor_id;sensor_type;location;lat;lon;timestamp;P1;durP1;ratioP1;P2;durP2;ratioP2
64075;SDS011;50327;51.328;12.324;2022-11-03T00:01:41;20.27;;;4.05;;
64075;SDS011;50327;51.328;12.324;2022-11-03T00:04:08;14.32;;;4.10;;
64075;SDS011;50327;51.328;12.324;2022-11-03T00:06:34;16.45;;;3.42;;
64075;SDS011;50327;51.328;12.324;2022-11-03T00:09:00;19.35;;;5.13;;
64075;SDS011;50327;51.328;12.324;2022-11-03T00:11:25;16.38;;;5.32;;
64075;SDS011;50327;51.328;12.324;2022-11-03T00:13:51;14.15;;;4.10;;
64075;SDS011;50327;51.328;12.324;2022-11-03T00:16:16;15.70;;;4.93;;
64075;SDS011;50327;51.328;12.324;2022-11-03T00:18:41;24.63;;;4.88;;
64075;SDS011;50327;51.328;12.324;2022-11-03T00:21:07;12.07;;;4.25;;
64075;SDS011;50327;51.328;12.324;2022-11-03T00:23:34;15.88;;;4.15;;
64075;SDS011;50327;51.328;12.324;2022-11-03T00:26:04;17.17;;;4.30;;
64075;SDS011;50327;51.328;12.324;2022-11-03T00:28:30;22.77;;;5.05;;
64075;SDS011;50327;51.328;12.324;2022-11-03T00:30:55;15.05;;;3.30;;
64075;SDS011;50327;51.328;12.324;2022-11-03T00:33:20;11.43;;;3.70;;
64075;SDS011;50327;51.328;12.324;2022-11-03T00:35:54;12.70;;;4.05;;
64075;SDS011;50327;51.328;12.324;2022-11-03T00:38:20;12.25;;;4.05;;
64075;SDS011;50327;51.328;12.324;2022-11-03T00:40:45;13.88;;;3.47;;
64075;SDS011;50327;51.328;12.324;2022-11-03T00:43:16;19.00;;;4.35;;
64075;SDS011;50327;51.328;12.324;2022-11-03T00:45:41;13.98;;;3.92;;
64075;SDS011;50327;51.328;12.324;2022-11-03T00:48:07;15.20;;;3.92;;
64075;SDS011;50327;51.328;12.324;2022-11-03T00:50:50;12.75;;;4.05;;
64075;SDS011;50327;51.328;12.324;2022-11-03T00:53:16;9.95;;;3.55;;
64075;SDS011;50327;51.328;12.324;2022-11-03T00:55:41;13.68;;;4.32;;
64075;SDS011;50327;51.328;12.324;2022-11-03T00:58:06;13.77;;;4.10;;
64075;SDS011;50327;51.328;12.324;2022-11-03T01:00:31;13.57;;;4.45;;
64075;SDS011;50327;51.328;12.324;2022-11-03T01:02:56;19.63;;;5.13;;
64075;SDS011;50327;51.328;12.324;2022-11-03T01:05:21;16.27;;;5.00;;
64075;SDS011;50327;51.328;12.324;2022-11-03T01:08:05;14.85;;;3.97;;
64075;SDS011;50327;51.328;12.324;2022-11-03T01:10:34;10.88;;;4.00;;
64075;SDS011;50327;51.328;12.324;2022-11-03T01:12:59;11.02;;;3.67;;
64075;SDS011;50327;51.328;12.324;2022-11-03T01:15:26;14.20;;;3.60;;
64075;SDS011;50327;51.328;12.324;2022-11-03T01:17:51;10.63;;;3.90;;
64075;SDS011;50327;51.328;12.324;2022-11-03T01:20:16;19.65;;;4.32;;
64075;SDS011;50327;51.328;12.324;2022-11-03T01:22:41;16.35;;;4.15;;
64075;SDS011;50327;51.328;12.324;2022-11-03T01:25:06;15.13;;;3.75;;
64075;SDS011;50327;51.328;12.324;2022-11-03T01:27:33;13.32;;;4.43;;
64075;SDS011;50327;51.328;12.324;2022-11-03T01:29:58;22.23;;;4.88;;
64075;SDS011;50327;51.328;12.324;2022-11-03T01:32:23;11.90;;;3.58;;
64075;SDS011;50327;51.328;12.324;2022-11-03T01:34:48;14.50;;;4.65;;
64075;SDS011;50327;51.328;12.324;2022-11-03T01:37:14;17.30;;;4.47;;
64075;SDS011;50327;51.328;12.324;2022-11-03T01:39:39;19.85;;;6.53;;
64075;SDS011;50327;51.328;12.324;2022-11-03T01:42:04;19.98;;;4.63;;
64075;SDS011;50327;51.328;12.324;2022-11-03T01:46:59;14.32;;;4.47;;
64075;SDS011;50327;51.328;12.324;2022-11-03T01:52:33;21.90;;;4.60;;
64075;SDS011;50327;51.328;12.324;2022-11-03T01:55:02;11.27;;;3.63;;
64075;SDS011;50327;51.328;12.324;2022-11-03T01:57:31;18.52;;;4.03;;
64075;SDS011;50327;51.328;12.324;2022-11-03T01:59:58;14.73;;;5.25;;
64075;SDS011;50327;51.328;12.324;2022-11-03T02:02:24;14.95;;;4.20;;
64075;SDS011;50327;51.328;12.324;2022-11-03T02:04:50;16.70;;;4.78;;
64075;SDS011;50327;51.328;12.324;2022-11-03T02:09:49;25.67;;;5.10;;
64075;SDS011;50327;51.328;12.324;2022-11-03T02:12:14;19.25;;;4.28;;
64075;SDS011;50327;51.328;12.324;2022-11-03T02:14:44;16.35;;;4.07;;
64075;SDS011;50327;51.328;12.324;2022-11-03T02:17:12;18.40;;;5.40;;
64075;SDS011;50327;51.328;12.324;2022-11-03T02:19:46;17.10;;;4.15;;
64075;SDS011;50327;51.328;12.324;2022-11-03T02:22:16;16.98;;;4.35;;
64075;SDS011;50327;51.328;12.324;2022-11-03T02:27:08;19.13;;;4.93;;
64075;SDS011;50327;51.328;12.324;2022-11-03T02:29:33;20.60;;;4.93;;
64075;SDS011;50327;51.328;12.324;2022-11-03T02:32:03;15.30;;;5.38;;
64075;SDS011;50327;51.328;12.324;2022-11-03T02:34:39;15.85;;;3.92;;
64075;SDS011;50327;51.328;12.324;2022-11-03T02:37:09;18.70;;;4.73;;
64075;SDS011;50327;51.328;12.324;2022-11-03T02:39:40;20.98;;;4.60;;
64075;SDS011;50327;51.328;12.324;2022-11-03T02:42:08;23.30;;;4.88;;
64075;SDS011;50327;51.328;12.324;2022-11-03T02:44:34;11.68;;;4.05;;
64075;SDS011;50327;51.328;12.324;2022-11-03T02:47:02;14.68;;;4.20;;
64075;SDS011;50327;51.328;12.324;2022-11-03T02:49:28;19.00;;;3.88;;
64075;SDS011;50327;51.328;12.324;2022-11-03T02:51:59;11.60;;;4.20;;
64075;SDS011;50327;51.328;12.324;2022-11-03T02:54:26;14.00;;;3.67;;
64075;SDS011;50327;51.328;12.324;2022-11-03T02:56:53;21.52;;;5.22;;
64075;SDS011;50327;51.328;12.324;2022-11-03T02:59:28;14.38;;;4.10;;
64075;SDS011;50327;51.328;12.324;2022-11-03T03:02:01;16.92;;;3.65;;
64075;SDS011;50327;51.328;12.324;2022-11-03T03:04:28;14.77;;;3.97;;
64075;SDS011;50327;51.328;12.324;2022-11-03T03:07:02;7.15;;;3.20;;
64075;SDS011;50327;51.328;12.324;2022-11-03T03:09:39;18.50;;;4.22;;
64075;SDS011;50327;51.328;12.324;2022-11-03T03:12:05;15.13;;;4.25;;
64075;SDS011;50327;51.328;12.324;2022-11-03T03:14:39;13.13;;;4.05;;
64075;SDS011;50327;51.328;12.324;2022-11-03T03:21:57;10.32;;;2.97;;
64075;SDS011;50327;51.328;12.324;2022-11-03T03:24:39;10.40;;;3.47;;
64075;SDS011;50327;51.328;12.324;2022-11-03T03:27:07;9.77;;;3.53;;
64075;SDS011;50327;51.328;12.324;2022-11-03T03:29:36;12.20;;;3.33;;
64075;SDS011;50327;51.328;12.324;2022-11-03T03:32:05;17.73;;;3.33;;
64075;SDS011;50327;51.328;12.324;2022-11-03T03:34:38;15.23;;;3.45;;
64075;SDS011;50327;51.328;12.324;2022-11-03T03:37:05;13.68;;;2.92;;
64075;SDS011;50327;51.328;12.324;2022-11-03T03:39:32;12.57;;;3.67;;
64075;SDS011;50327;51.328;12.324;2022-11-03T03:41:59;16.83;;;3.13;;
64075;SDS011;50327;51.328;12.324;2022-11-03T03:44:25;14.48;;;3.08;;
64075;SDS011;50327;51.328;12.324;2022-11-03T03:46:52;12.43;;;5.35;;
64075;SDS011;50327;51.328;12.324;2022-11-03T03:49:19;18.25;;;4.93;;
64075;SDS011;50327;51.328;12.324;2022-11-03T03:51:45;15.70;;;4.50;;
64075;SDS011;50327;51.328;12.324;2022-11-03T03:54:11;10.10;;;3.38;;
64075;SDS011;50327;51.328;12.324;2022-11-03T03:56:41;8.90;;;2.97;;
64075;SDS011;50327;51.328;12.324;2022-11-03T03:59:07;27.13;;;3.63;;
64075;SDS011;50327;51.328;12.324;2022-11-03T04:01:33;13.98;;;3.80;;
64075;SDS011;50327;51.328;12.324;2022-11-03T04:03:58;10.57;;;3.05;;
64075;SDS011;50327;51.328;12.324;2022-11-03T04:06:23;39.10;;;5.90;;
64075;SDS011;50327;51.328;12.324;2022-11-03T04:08:48;15.20;;;3.40;;
64075;SDS011;50327;51.328;12.324;2022-11-03T04:11:13;15.35;;;3.20;;
64075;SDS011;50327;51.328;12.324;2022-11-03T04:13:57;11.57;;;2.90;;
64075;SDS011;50327;51.328;12.324;2022-11-03T04:16:41;10.75;;;3.40;;
64075;SDS011;50327;51.328;12.324;2022-11-03T04:19:25;14.40;;;3.20;;
64075;SDS011;50327;51.328;12.324;2022-11-03T04:22:09;14.05;;;4.38;;
64075;SDS011;50327;51.328;12.324;2022-11-03T04:24:41;12.10;;;3.20;;
64075;SDS011;50327;51.328;12.324;2022-11-03T04:27:15;11.75;;;3.30;;
64075;SDS011;50327;51.328;12.324;2022-11-03T04:29:43;17.02;;;3.53;;
64075;SDS011;50327;51.328;12.324;2022-11-03T04:32:13;11.27;;;2.75;;
64075;SDS011;50327;51.328;12.324;2022-11-03T04:34:40;7.35;;;2.67;;
64075;SDS011;50327;51.328;12.324;2022-11-03T04:37:07;10.55;;;3.65;;
64075;SDS011;50327;51.328;12.324;2022-11-03T04:39:33;8.95;;;2.67;;
64075;SDS011;50327;51.328;12.324;2022-11-03T04:41:58;11.80;;;3.35;;
64075;SDS011;50327;51.328;12.324;2022-11-03T04:44:23;13.25;;;3.50;;
64075;SDS011;50327;51.328;12.324;2022-11-03T04:46:48;20.75;;;3.70;;
64075;SDS011;50327;51.328;12.324;2022-11-03T04:49:16;10.73;;;3.42;;
64075;SDS011;50327;51.328;12.324;2022-11-03T04:51:43;12.50;;;3.60;;
64075;SDS011;50327;51.328;12.324;2022-11-03T04:54:12;11.88;;;3.50;;
64075;SDS011;50327;51.328;12.324;2022-11-03T04:56:39;6.47;;;2.65;;
64075;SDS011;50327;51.328;12.324;2022-11-03T04:59:09;10.35;;;2.97;;
64075;SDS011;50327;51.328;12.324;2022-11-03T05:01:34;10.95;;;3.35;;
64075;SDS011;50327;51.328;12.324;2022-11-03T05:03:59;8.65;;;2.80;;
64075;SDS011;50327;51.328;12.324;2022-11-03T05:06:25;18.98;;;3.65;;
64075;SDS011;50327;51.328;12.324;2022-11-03T05:08:52;10.73;;;3.72;;
64075;SDS011;50327;51.328;12.324;2022-11-03T05:13:49;25.98;;;4.15;;
64075;SDS011;50327;51.328;12.324;2022-11-03T05:16:15;10.95;;;3.60;;
64075;SDS011;50327;51.328;12.324;2022-11-03T05:18:41;14.18;;;3.50;;
64075;SDS011;50327;51.328;12.324;2022-11-03T05:21:11;11.70;;;3.80;;
64075;SDS011;50327;51.328;12.324;2022-11-03T05:23:38;7.95;;;3.33;;
64075;SDS011;50327;51.328;12.324;2022-11-03T05:26:04;13.10;;;3.78;;
64075;SDS011;50327;51.328;12.324;2022-11-03T05:28:44;15.73;;;4.05;;
64075;SDS011;50327;51.328;12.324;2022-11-03T05:31:26;16.52;;;3.50;;
64075;SDS011;50327;51.328;12.324;2022-11-03T05:33:53;16.88;;;5.50;;
64075;SDS011;50327;51.328;12.324;2022-11-03T05:36:21;17.55;;;4.97;;
64075;SDS011;50327;51.328;12.324;2022-11-03T05:38:46;13.70;;;3.47;;
64075;SDS011;50327;51.328;12.324;2022-11-03T05:41:13;15.50;;;4.47;;
64075;SDS011;50327;51.328;12.324;2022-11-03T05:43:40;12.85;;;4.10;;
64075;SDS011;50327;51.328;12.324;2022-11-03T05:46:07;21.92;;;4.30;;
64075;SDS011;50327;51.328;12.324;2022-11-03T05:48:35;14.25;;;4.30;;
64075;SDS011;50327;51.328;12.324;2022-11-03T05:51:02;22.33;;;4.65;;
64075;SDS011;50327;51.328;12.324;2022-11-03T05:53:35;13.35;;;4.07;;
64075;SDS011;50327;51.328;12.324;2022-11-03T05:56:03;10.82;;;3.50;;
64075;SDS011;50327;51.328;12.324;2022-11-03T05:58:36;16.00;;;4.28;;
64075;SDS011;50327;51.328;12.324;2022-11-03T06:01:03;18.85;;;4.07;;
64075;SDS011;50327;51.328;12.324;2022-11-03T06:03:29;7.82;;;3.03;;
64075;SDS011;50327;51.328;12.324;2022-11-03T06:05:57;22.48;;;6.55;;
64075;SDS011;50327;51.328;12.324;2022-11-03T06:08:32;13.45;;;5.60;;
64075;SDS011;50327;51.328;12.324;2022-11-03T06:10:59;12.93;;;5.15;;
64075;SDS011;50327;51.328;12.324;2022-11-03T06:13:26;16.67;;;4.32;;
64075;SDS011;50327;51.328;12.324;2022-11-03T06:15:57;22.88;;;4.78;;
64075;SDS011;50327;51.328;12.324;2022-11-03T06:18:24;19.52;;;4.03;;
64075;SDS011;50327;51.328;12.324;2022-11-03T06:20:50;15.98;;;4.07;;
64075;SDS011;50327;51.328;12.324;2022-11-03T06:23:16;9.88;;;3.70;;
64075;SDS011;50327;51.328;12.324;2022-11-03T06:25:42;18.08;;;4.47;;
64075;SDS011;50327;51.328;12.324;2022-11-03T06:28:12;20.42;;;3.92;;
64075;SDS011;50327;51.328;12.324;2022-11-03T06:30:39;10.07;;;3.30;;
64075;SDS011;50327;51.328;12.324;2022-11-03T06:33:15;13.57;;;3.42;;
64075;SDS011;50327;51.328;12.324;2022-11-03T06:35:43;9.02;;;4.95;;
64075;SDS011;50327;51.328;12.324;2022-11-03T06:38:16;13.02;;;3.65;;
64075;SDS011;50327;51.328;12.324;2022-11-03T06:40:42;17.95;;;4.43;;
64075;SDS011;50327;51.328;12.324;2022-11-03T06:43:15;12.75;;;3.97;;
64075;SDS011;50327;51.328;12.324;2022-11-03T06:45:48;13.40;;;2.78;;
64075;SDS011;50327;51.328;12.324;2022-11-03T06:48:15;12.63;;;3.88;;
64075;SDS011;50327;51.328;12.324;2022-11-03T06:50:44;13.25;;;3.53;;
64075;SDS011;50327;51.328;12.324;2022-11-03T06:53:09;6.97;;;3.08;;
64075;SDS011;50327;51.328;12.324;2022-11-03T06:55:35;8.27;;;2.50;;
64075;SDS011;50327;51.328;12.324;2022-11-03T06:58:06;12.80;;;3.28;;
64075;SDS011;50327;51.328;12.324;2022-11-03T07:00:34;11.07;;;2.65;;
64075;SDS011;50327;51.328;12.324;2022-11-03T07:03:04;17.48;;;3.50;;
64075;SDS011;50327;51.328;12.324;2022-11-03T07:05:32;15.38;;;3.47;;
64075;SDS011;50327;51.328;12.324;2022-11-03T07:07:58;18.38;;;4.30;;
64075;SDS011;50327;51.328;12.324;2022-11-03T07:10:28;13.05;;;3.30;;
64075;SDS011;50327;51.328;12.324;2022-11-03T07:12:54;9.80;;;3.42;;
64075;SDS011;50327;51.328;12.324;2022-11-03T07:15:22;18.48;;;3.58;;
64075;SDS011;50327;51.328;12.324;2022-11-03T07:17:48;9.43;;;2.50;;
64075;SDS011;50327;51.328;12.324;2022-11-03T07:20:14;12.75;;;3.25;;
64075;SDS011;50327;51.328;12.324;2022-11-03T07:22:40;13.50;;;3.38;;
64075;SDS011;50327;51.328;12.324;2022-11-03T07:25:08;18.48;;;4.00;;
64075;SDS011;50327;51.328;12.324;2022-11-03T07:27:40;13.43;;;3.25;;
64075;SDS011;50327;51.328;12.324;2022-11-03T07:32:39;18.13;;;4.38;;
64075;SDS011;50327;51.328;12.324;2022-11-03T07:37:42;32.75;;;4.25;;
64075;SDS011;50327;51.328;12.324;2022-11-03T07:40:17;12.80;;;2.97;;
64075;SDS011;50327;51.328;12.324;2022-11-03T07:42:43;13.65;;;3.35;;
64075;SDS011;50327;51.328;12.324;2022-11-03T07:45:54;13.00;;;3.95;;
64075;SDS011;50327;51.328;12.324;2022-11-03T07:47:54;9.45;;;3.22;;
64075;SDS011;50327;51.328;12.324;2022-11-03T07:50:19;14.65;;;3.10;;
64075;SDS011;50327;51.328;12.324;2022-11-03T07:52:44;14.65;;;3.83;;
64075;SDS011;50327;51.328;12.324;2022-11-03T07:55:09;7.70;;;2.75;;
64075;SDS011;50327;51.328;12.324;2022-11-03T07:57:35;18.85;;;3.67;;
64075;SDS011;50327;51.328;12.324;2022-11-03T08:00:01;13.95;;;3.67;;
64075;SDS011;50327;51.328;12.324;2022-11-03T08:04:53;22.92;;;3.95;;
64075;SDS011;50327;51.328;12.324;2022-11-03T08:07:18;15.70;;;3.17;;
64075;SDS011;50327;51.328;12.324;2022-11-03T08:09:43;13.25;;;3.90;;
64075;SDS011;50327;51.328;12.324;2022-11-03T08:12:09;19.77;;;3.92;;
64075;SDS011;50327;51.328;12.324;2022-11-03T08:14:34;14.13;;;3.33;;
64075;SDS011;50327;51.328;12.324;2022-11-03T08:17:01;11.38;;;2.80;;
64075;SDS011;50327;51.328;12.324;2022-11-03T08:19:26;13.27;;;3.03;;
64075;SDS011;50327;51.328;12.324;2022-11-03T08:21:52;21.73;;;3.58;;
64075;SDS011;50327;51.328;12.324;2022-11-03T08:24:17;14.88;;;2.92;;
64075;SDS011;50327;51.328;12.324;2022-11-03T08:26:42;10.63;;;2.45;;
64075;SDS011;50327;51.328;12.324;2022-11-03T08:29:07;5.88;;;1.95;;
64075;SDS011;50327;51.328;12.324;2022-11-03T08:31:32;12.65;;;3.05;;
64075;SDS011;50327;51.328;12.324;2022-11-03T08:33:58;8.18;;;2.03;;
64075;SDS011;50327;51.328;12.324;2022-11-03T08:36:23;15.70;;;2.70;;
64075;SDS011;50327;51.328;12.324;2022-11-03T08:38:48;14.45;;;2.45;;
64075;SDS011;50327;51.328;12.324;2022-11-03T08:41:13;10.88;;;2.17;;
64075;SDS011;50327;51.328;12.324;2022-11-03T08:43:38;13.07;;;2.70;;
64075;SDS011;50327;51.328;12.324;2022-11-03T08:46:04;10.98;;;2.80;;
64075;SDS011;50327;51.328;12.324;2022-11-03T08:48:29;11.57;;;2.58;;
64075;SDS011;50327;51.328;12.324;2022-11-03T08:50:54;17.35;;;2.55;;
64075;SDS011;50327;51.328;12.324;2022-11-03T08:53:23;19.17;;;2.80;;
64075;SDS011;50327;51.328;12.324;2022-11-03T08:55:49;8.15;;;2.55;;
64075;SDS011;50327;51.328;12.324;2022-11-03T08:58:14;12.73;;;2.65;;
64075;SDS011;50327;51.328;12.324;2022-11-03T09:00:39;7.57;;;2.70;;
64075;SDS011;50327;51.328;12.324;2022-11-03T09:03:04;25.88;;;2.40;;
64075;SDS011;50327;51.328;12.324;2022-11-03T09:05:30;9.73;;;2.30;;
64075;SDS011;50327;51.328;12.324;2022-11-03T09:07:55;7.60;;;2.35;;
64075;SDS011;50327;51.328;12.324;2022-11-03T09:10:20;6.13;;;2.00;;
64075;SDS011;50327;51.328;12.324;2022-11-03T09:12:46;13.07;;;2.75;;
64075;SDS011;50327;51.328;12.324;2022-11-03T09:15:11;9.52;;;2.15;;
64075;SDS011;50327;51.328;12.324;2022-11-03T09:17:36;18.55;;;2.65;;
64075;SDS011;50327;51.328;12.324;2022-11-03T09:20:01;8.73;;;2.30;;
64075;SDS011;50327;51.328;12.324;2022-11-03T09:22:27;17.65;;;2.55;;
64075;SDS011;50327;51.328;12.324;2022-11-03T09:24:52;21.45;;;2.60;;
64075;SDS011;50327;51.328;12.324;2022-11-03T09:27:17;35.20;;;2.50;;
64075;SDS011;50327;51.328;12.324;2022-11-03T09:29:42;22.10;;;3.40;;
64075;SDS011;50327;51.328;12.324;2022-11-03T09:32:08;12.80;;;2.38;;
64075;SDS011;50327;51.328;12.324;2022-11-03T09:34:33;11.05;;;2.53;;
64075;SDS011;50327;51.328;12.324;2022-11-03T09:36:58;18.30;;;2.28;;
64075;SDS011;50327;51.328;12.324;2022-11-03T09:39:23;12.25;;;2.83;;
64075;SDS011;50327;51.328;12.324;2022-11-03T09:41:49;9.95;;;2.17;;
64075;SDS011;50327;51.328;12.324;2022-11-03T09:44:14;16.75;;;2.70;;
64075;SDS011;50327;51.328;12.324;2022-11-03T09:46:40;11.52;;;2.40;;
64075;SDS011;50327;51.328;12.324;2022-11-03T09:49:05;18.25;;;3.15;;
64075;SDS011;50327;51.328;12.324;2022-11-03T09:51:31;23.63;;;3.65;;
64075;SDS011;50327;51.328;12.324;2022-11-03T09:54:00;8.40;;;2.35;;
64075;SDS011;50327;51.328;12.324;2022-11-03T09:56:26;8.82;;;1.92;;
64075;SDS011;50327;51.328;12.324;2022-11-03T09:58:51;14.82;;;2.85;;
64075;SDS011;50327;51.328;12.324;2022-11-03T10:01:17;13.07;;;2.17;;
64075;SDS011;50327;51.328;12.324;2022-11-03T10:03:42;13.93;;;2.40;;
64075;SDS011;50327;51.328;12.324;2022-11-03T10:06:07;11.90;;;2.35;;
64075;SDS011;50327;51.328;12.324;2022-11-03T10:08:33;10.38;;;2.45;;
64075;SDS011;50327;51.328;12.324;2022-11-03T10:10:59;12.35;;;2.45;;
64075;SDS011;50327;51.328;12.324;2022-11-03T10:16:09;12.20;;;3.13;;
64075;SDS011;50327;51.328;12.324;2022-11-03T10:18:36;10.52;;;2.83;;
64075;SDS011;50327;51.328;12.324;2022-11-03T10:21:05;11.73;;;2.45;;
64075;SDS011;50327;51.328;12.324;2022-11-03T10:23:30;15.23;;;3.28;;
64075;SDS011;50327;51.328;12.324;2022-11-03T10:26:29;14.80;;;2.20;;
64075;SDS011;50327;51.328;12.324;2022-11-03T10:31:22;12.20;;;2.55;;
64075;SDS011;50327;51.328;12.324;2022-11-03T10:33:50;18.10;;;4.30;;
64075;SDS011;50327;51.328;12.324;2022-11-03T10:38:41;10.90;;;2.30;;
64075;SDS011;50327;51.328;12.324;2022-11-03T10:41:11;13.80;;;2.83;;
64075;SDS011;50327;51.328;12.324;2022-11-03T10:43:37;7.00;;;2.17;;
64075;SDS011;50327;51.328;12.324;2022-11-03T10:46:09;11.10;;;2.60;;
64075;SDS011;50327;51.328;12.324;2022-11-03T10:48:34;12.80;;;2.70;;
64075;SDS011;50327;51.328;12.324;2022-11-03T10:50:59;11.87;;;2.43;;
64075;SDS011;50327;51.328;12.324;2022-11-03T10:53:25;9.57;;;1.80;;
64075;SDS011;50327;51.328;12.324;2022-11-03T10:55:50;11.43;;;2.38;;
64075;SDS011;50327;51.328;12.324;2022-11-03T10:58:15;7.28;;;1.98;;
64075;SDS011;50327;51.328;12.324;2022-11-03T11:00:40;14.05;;;1.80;;
64075;SDS011;50327;51.328;12.324;2022-11-03T11:03:06;9.68;;;2.25;;
64075;SDS011;50327;51.328;12.324;2022-11-03T11:05:31;10.27;;;1.83;;
64075;SDS011;50327;51.328;12.324;2022-11-03T11:07:57;7.45;;;1.90;;
64075;SDS011;50327;51.328;12.324;2022-11-03T11:10:23;8.88;;;1.95;;
64075;SDS011;50327;51.328;12.324;2022-11-03T11:13:05;8.70;;;1.67;;
64075;SDS011;50327;51.328;12.324;2022-11-03T11:15:49;7.25;;;2.50;;
64075;SDS011;50327;51.328;12.324;2022-11-03T11:20:52;13.27;;;2.45;;
64075;SDS011;50327;51.328;12.324;2022-11-03T11:28:29;13.60;;;2.78;;
64075;SDS011;50327;51.328;12.324;2022-11-03T11:49:43;9.63;;;2.22;;
64075;SDS011;50327;51.328;12.324;2022-11-03T11:52:09;9.50;;;1.95;;
64075;SDS011;50327;51.328;12.324;2022-11-03T11:54:34;8.50;;;1.88;;
64075;SDS011;50327;51.328;12.324;2022-11-03T11:56:59;9.27;;;1.90;;
64075;SDS011;50327;51.328;12.324;2022-11-03T11:59:24;9.05;;;2.40;;
64075;SDS011;50327;51.328;12.324;2022-11-03T12:01:50;7.50;;;2.07;;
64075;SDS011;50327;51.328;12.324;2022-11-03T12:04:17;13.05;;;2.35;;
64075;SDS011;50327;51.328;12.324;2022-11-03T12:06:43;7.70;;;1.70;;
64075;SDS011;50327;51.328;12.324;2022-11-03T12:11:41;15.63;;;2.22;;
64075;SDS011;50327;51.328;12.324;2022-11-03T12:14:20;6.28;;;2.08;;
64075;SDS011;50327;51.328;12.324;2022-11-03T12:16:45;10.02;;;2.38;;
64075;SDS011;50327;51.328;12.324;2022-11-03T12:21:54;10.70;;;2.08;;
64075;SDS011;50327;51.328;12.324;2022-11-03T12:27:00;8.68;;;1.50;;
64075;SDS011;50327;51.328;12.324;2022-11-03T12:31:51;8.02;;;1.80;;
64075;SDS011;50327;51.328;12.324;2022-11-03T12:34:16;17.05;;;2.63;;
64075;SDS011;50327;51.328;12.324;2022-11-03T12:36:42;11.30;;;1.60;;
64075;SDS011;50327;51.328;12.324;2022-11-03T12:39:07;7.85;;;1.77;;
64075;SDS011;50327;51.328;12.324;2022-11-03T12:41:33;8.15;;;1.60;;
64075;SDS011;50327;51.328;12.324;2022-11-03T12:43:58;8.03;;;1.50;;
64075;SDS011;50327;51.328;12.324;2022-11-03T12:46:23;11.33;;;2.00;;
64075;SDS011;50327;51.328;12.324;2022-11-03T12:48:48;13.68;;;1.85;;
64075;SDS011;50327;51.328;12.324;2022-11-03T12:51:16;9.65;;;1.50;;
64075;SDS011;50327;51.328;12.324;2022-11-03T12:53:41;6.22;;;1.58;;
64075;SDS011;50327;51.328;12.324;2022-11-03T12:56:07;7.70;;;1.83;;
64075;SDS011;50327;51.328;12.324;2022-11-03T12:58:33;9.50;;;1.45;;
64075;SDS011;50327;51.328;12.324;2022-11-03T13:00:58;5.47;;;1.45;;
64075;SDS011;50327;51.328;12.324;2022-11-03T13:03:24;7.80;;;1.90;;
64075;SDS011;50327;51.328;12.324;2022-11-03T13:05:49;24.33;;;3.67;;
64075;SDS011;50327;51.328;12.324;2022-11-03T13:08:14;18.23;;;2.07;;
64075;SDS011;50327;51.328;12.324;2022-11-03T13:10:39;11.20;;;1.80;;
64075;SDS011;50327;51.328;12.324;2022-11-03T13:13:05;7.20;;;1.80;;
64075;SDS011;50327;51.328;12.324;2022-11-03T13:15:30;7.35;;;1.85;;
64075;SDS011;50327;51.328;12.324;2022-11-03T13:17:55;11.82;;;1.98;;
64075;SDS011;50327;51.328;12.324;2022-11-03T13:20:21;12.23;;;2.15;;
64075;SDS011;50327;51.328;12.324;2022-11-03T13:22:46;9.88;;;2.10;;
64075;SDS011;50327;51.328;12.324;2022-11-03T13:25:11;9.95;;;2.08;;
64075;SDS011;50327;51.328;12.324;2022-11-03T13:27:36;12.17;;;2.07;;
64075;SDS011;50327;51.328;12.324;2022-11-03T13:30:02;11.43;;;2.67;;
64075;SDS011;50327;51.328;12.324;2022-11-03T13:32:27;15.20;;;2.25;;
64075;SDS011;50327;51.328;12.324;2022-11-03T13:34:52;10.00;;;2.90;;
64075;SDS011;50327;51.328;12.324;2022-11-03T13:37:18;7.75;;;2.22;;
64075;SDS011;50327;51.328;12.324;2022-11-03T13:39:43;11.57;;;2.38;;
64075;SDS011;50327;51.328;12.324;2022-11-03T13:42:08;11.75;;;2.22;;
64075;SDS011;50327;51.328;12.324;2022-11-03T13:44:33;11.18;;;2.58;;
64075;SDS011;50327;51.328;12.324;2022-11-03T13:46:58;6.00;;;1.83;;
64075;SDS011;50327;51.328;12.324;2022-11-03T13:49:24;8.82;;;2.70;;
64075;SDS011;50327;51.328;12.324;2022-11-03T13:51:49;11.35;;;3.28;;
64075;SDS011;50327;51.328;12.324;2022-11-03T13:54:14;11.02;;;2.08;;
64075;SDS011;50327;51.328;12.324;2022-11-03T13:56:39;16.27;;;2.00;;
64075;SDS011;50327;51.328;12.324;2022-11-03T13:59:04;7.33;;;2.23;;
64075;SDS011;50327;51.328;12.324;2022-11-03T14:01:30;8.93;;;2.30;;
64075;SDS011;50327;51.328;12.324;2022-11-03T14:03:55;10.02;;;2.38;;
64075;SDS011;50327;51.328;12.324;2022-11-03T14:06:20;15.48;;;2.97;;
64075;SDS011;50327;51.328;12.324;2022-11-03T14:08:45;8.30;;;2.27;;
64075;SDS011;50327;51.328;12.324;2022-11-03T14:11:10;13.20;;;2.47;;
64075;SDS011;50327;51.328;12.324;2022-11-03T14:13:54;9.35;;;2.00;;
64075;SDS011;50327;51.328;12.324;2022-11-03T14:16:20;16.13;;;4.75;;
64075;SDS011;50327;51.328;12.324;2022-11-03T14:18:45;7.57;;;2.13;;
64075;SDS011;50327;51.328;12.324;2022-11-03T14:21:10;7.63;;;2.27;;
64075;SDS011;50327;51.328;12.324;2022-11-03T14:23:35;10.73;;;2.72;;
64075;SDS011;50327;51.328;12.324;2022-11-03T14:26:00;12.48;;;2.85;;
64075;SDS011;50327;51.328;12.324;2022-11-03T14:28:26;10.90;;;1.65;;
64075;SDS011;50327;51.328;12.324;2022-11-03T14:30:51;10.37;;;2.37;;
64075;SDS011;50327;51.328;12.324;2022-11-03T14:33:16;10.15;;;2.13;;
64075;SDS011;50327;51.328;12.324;2022-11-03T14:35:41;10.75;;;2.83;;
64075;SDS011;50327;51.328;12.324;2022-11-03T14:38:07;15.38;;;2.95;;
64075;SDS011;50327;51.328;12.324;2022-11-03T14:40:32;12.25;;;2.40;;
64075;SDS011;50327;51.328;12.324;2022-11-03T14:43:16;10.55;;;2.40;;
64075;SDS011;50327;51.328;12.324;2022-11-03T14:45:41;8.05;;;2.15;;
64075;SDS011;50327;51.328;12.324;2022-11-03T14:48:06;9.68;;;2.22;;
64075;SDS011;50327;51.328;12.324;2022-11-03T14:50:31;7.20;;;2.13;;
64075;SDS011;50327;51.328;12.324;2022-11-03T14:52:56;17.77;;;2.97;;
64075;SDS011;50327;51.328;12.324;2022-11-03T14:55:22;11.73;;;2.13;;
64075;SDS011;50327;51.328;12.324;2022-11-03T14:57:47;11.35;;;2.30;;
64075;SDS011;50327;51.328;12.324;2022-11-03T15:00:12;9.43;;;2.17;;
64075;SDS011;50327;51.328;12.324;2022-11-03T15:02:37;8.45;;;2.47;;
64075;SDS011;50327;51.328;12.324;2022-11-03T15:05:03;5.82;;;2.25;;
64075;SDS011;50327;51.328;12.324;2022-11-03T15:07:28;12.10;;;1.85;;
64075;SDS011;50327;51.328;12.324;2022-11-03T15:09:53;5.85;;;1.90;;
64075;SDS011;50327;51.328;12.324;2022-11-03T15:12:19;9.05;;;2.38;;
64075;SDS011;50327;51.328;12.324;2022-11-03T15:14:44;16.00;;;2.13;;
64075;SDS011;50327;51.328;12.324;2022-11-03T15:17:09;9.87;;;2.60;;
64075;SDS011;50327;51.328;12.324;2022-11-03T15:19:35;21.52;;;3.05;;
64075;SDS011;50327;51.328;12.324;2022-11-03T15:22:00;14.70;;;2.47;;
64075;SDS011;50327;51.328;12.324;2022-11-03T15:24:25;8.20;;;2.15;;
64075;SDS011;50327;51.328;12.324;2022-11-03T15:26:50;6.72;;;2.25;;
64075;SDS011;50327;51.328;12.324;2022-11-03T15:29:15;7.93;;;2.25;;
64075;SDS011;50327;51.328;12.324;2022-11-03T15:31:41;10.20;;;2.15;;
64075;SDS011;50327;51.328;12.324;2022-11-03T15:34:06;7.13;;;2.10;;